sensor_id;sensor_type;location;lat;lon;timestamp;P1;durP1;ratioP1;P2;durP2;ratioP2
30247;SDS011;17063;50.892;4.702;2023-09-12T00:00:47;18.07;;;11.10;;
30247;SDS011;17063;50.892;4.702;2023-09-12T00:03:14;15.10;;;11.07;;
30247;SDS011;17063;50.892;4.702;2023-09-12T00:05:42;19.00;;;11.00;;
30247;SDS011;17063;50.892;4.702;2023-09-12T00:08:20;20.97;;;11.67;;
30247;SDS011;17063;50.892;4.702;2023-09-12T00:13:57;17.40;;;11.00;;
30247;SDS011;17063;50.892;4.702;2023-09-12T00:16:27;16.50;;;11.23;;
30247;SDS011;17063;50.892;4.702;2023-09-12T00:18:55;16.53;;;10.73;;
30247;SDS011;17063;50.892;4.702;2023-09-12T00:21:27;19.37;;;11.57;;
30247;SDS011;17063;50.892;4.702;2023-09-12T00:23:54;18.00;;;10.67;;
30247;SDS011;17063;50.892;4.702;2023-09-12T00:26:21;20.47;;;11.53;;
30247;SDS011;17063;50.892;4.702;2023-09-12T00:28:50;18.00;;;10.33;;
30247;SDS011;17063;50.892;4.702;2023-09-12T00:31:17;18.03;;;10.77;;
30247;SDS011;17063;50.892;4.702;2023-09-12T00:33:47;15.37;;;10.40;;
30247;SDS011;17063;50.892;4.702;2023-09-12T00:36:22;18.33;;;11.07;;
30247;SDS011;17063;50.892;4.702;2023-09-12T00:38:49;16.63;;;11.50;;
30247;SDS011;17063;50.892;4.702;2023-09-12T00:41:19;21.13;;;10.80;;
30247;SDS011;17063;50.892;4.702;2023-09-12T00:43:46;18.63;;;10.70;;
30247;SDS011;17063;50.892;4.702;2023-09-12T00:46:14;16.03;;;10.77;;
30247;SDS011;17063;50.892;4.702;2023-09-12T00:48:45;18.47;;;10.63;;
30247;SDS011;17063;50.892;4.702;2023-09-12T00:51:13;18.20;;;11.50;;
30247;SDS011;17063;50.892;4.702;2023-09-12T00:53:42;15.53;;;11.40;;
30247;SDS011;17063;50.892;4.702;2023-09-12T00:56:09;19.47;;;11.00;;
30247;SDS011;17063;50.892;4.702;2023-09-12T00:58:37;16.77;;;10.70;;
30247;SDS011;17063;50.892;4.702;2023-09-12T01:01:05;16.90;;;10.47;;
30247;SDS011;17063;50.892;4.702;2023-09-12T01:03:32;16.47;;;10.57;;
30247;SDS011;17063;50.892;4.702;2023-09-12T01:05:59;16.77;;;10.00;;
30247;SDS011;17063;50.892;4.702;2023-09-12T01:08:27;14.83;;;10.37;;
30247;SDS011;17063;50.892;4.702;2023-09-12T01:10:55;14.80;;;10.33;;
30247;SDS011;17063;50.892;4.702;2023-09-12T01:13:23;15.80;;;10.37;;
30247;SDS011;17063;50.892;4.702;2023-09-12T01:15:50;22.57;;;11.50;;
30247;SDS011;17063;50.892;4.702;2023-09-12T01:18:17;17.53;;;11.10;;
30247;SDS011;17063;50.892;4.702;2023-09-12T01:20:49;21.73;;;11.00;;
30247;SDS011;17063;50.892;4.702;2023-09-12T01:29:12;18.37;;;11.00;;
30247;SDS011;17063;50.892;4.702;2023-09-12T01:31:39;14.97;;;10.00;;
30247;SDS011;17063;50.892;4.702;2023-09-12T01:34:10;16.33;;;10.60;;
30247;SDS011;17063;50.892;4.702;2023-09-12T01:36:38;17.27;;;10.50;;
30247;SDS011;17063;50.892;4.702;2023-09-12T01:39:05;17.70;;;10.53;;
30247;SDS011;17063;50.892;4.702;2023-09-12T01:41:34;15.00;;;9.80;;
30247;SDS011;17063;50.892;4.702;2023-09-12T01:44:02;15.93;;;10.20;;
30247;SDS011;17063;50.892;4.702;2023-09-12T01:46:29;15.50;;;10.07;;
30247;SDS011;17063;50.892;4.702;2023-09-12T01:48:58;12.53;;;10.33;;
30247;SDS011;17063;50.892;4.702;2023-09-12T01:51:26;13.60;;;11.13;;
30247;SDS011;17063;50.892;4.702;2023-09-12T01:53:54;20.17;;;11.20;;
30247;SDS011;17063;50.892;4.702;2023-09-12T01:56:21;18.87;;;11.50;;
30247;SDS011;17063;50.892;4.702;2023-09-12T01:58:48;19.77;;;10.80;;
30247;SDS011;17063;50.892;4.702;2023-09-12T02:01:15;21.47;;;10.27;;
30247;SDS011;17063;50.892;4.702;2023-09-12T02:03:42;15.20;;;9.90;;
30247;SDS011;17063;50.892;4.702;2023-09-12T02:06:09;16.10;;;10.50;;
30247;SDS011;17063;50.892;4.702;2023-09-12T02:08:37;21.43;;;10.83;;
30247;SDS011;17063;50.892;4.702;2023-09-12T02:11:08;14.70;;;9.40;;
30247;SDS011;17063;50.892;4.702;2023-09-12T02:13:35;12.90;;;9.77;;
30247;SDS011;17063;50.892;4.702;2023-09-12T02:16:02;14.10;;;9.43;;
30247;SDS011;17063;50.892;4.702;2023-09-12T02:18:30;15.47;;;9.50;;
30247;SDS011;17063;50.892;4.702;2023-09-12T02:21:00;13.87;;;10.47;;
30247;SDS011;17063;50.892;4.702;2023-09-12T02:23:27;19.27;;;10.57;;
30247;SDS011;17063;50.892;4.702;2023-09-12T02:25:54;14.83;;;10.03;;
30247;SDS011;17063;50.892;4.702;2023-09-12T02:28:22;15.57;;;10.23;;
30247;SDS011;17063;50.892;4.702;2023-09-12T02:30:49;15.07;;;9.57;;
30247;SDS011;17063;50.892;4.702;2023-09-12T02:33:16;13.60;;;9.07;;
30247;SDS011;17063;50.892;4.702;2023-09-12T02:35:43;16.63;;;10.07;;
30247;SDS011;17063;50.892;4.702;2023-09-12T02:38:10;18.17;;;9.70;;
30247;SDS011;17063;50.892;4.702;2023-09-12T02:40:37;16.53;;;10.30;;
30247;SDS011;17063;50.892;4.702;2023-09-12T02:43:03;14.93;;;10.47;;
30247;SDS011;17063;50.892;4.702;2023-09-12T02:45:31;13.10;;;9.13;;
30247;SDS011;17063;50.892;4.702;2023-09-12T02:47:58;14.00;;;10.00;;
30247;SDS011;17063;50.892;4.702;2023-09-12T02:50:25;16.00;;;9.67;;
30247;SDS011;17063;50.892;4.702;2023-09-12T02:52:51;15.63;;;10.17;;
30247;SDS011;17063;50.892;4.702;2023-09-12T02:55:18;13.47;;;9.70;;
30247;SDS011;17063;50.892;4.702;2023-09-12T02:57:45;19.73;;;10.27;;
30247;SDS011;17063;50.892;4.702;2023-09-12T03:00:13;16.73;;;9.47;;
30247;SDS011;17063;50.892;4.702;2023-09-12T03:02:40;17.67;;;10.60;;
30247;SDS011;17063;50.892;4.702;2023-09-12T03:05:07;15.00;;;10.70;;
30247;SDS011;17063;50.892;4.702;2023-09-12T03:07:34;15.10;;;10.43;;
30247;SDS011;17063;50.892;4.702;2023-09-12T03:10:02;15.53;;;10.70;;
30247;SDS011;17063;50.892;4.702;2023-09-12T03:12:30;21.70;;;11.57;;
30247;SDS011;17063;50.892;4.702;2023-09-12T03:14:57;20.13;;;11.30;;
30247;SDS011;17063;50.892;4.702;2023-09-12T03:17:24;19.10;;;11.67;;
30247;SDS011;17063;50.892;4.702;2023-09-12T03:19:51;18.37;;;11.23;;
30247;SDS011;17063;50.892;4.702;2023-09-12T03:22:18;24.40;;;12.97;;
30247;SDS011;17063;50.892;4.702;2023-09-12T03:24:45;26.80;;;13.00;;
30247;SDS011;17063;50.892;4.702;2023-09-12T03:27:12;20.17;;;11.83;;
30247;SDS011;17063;50.892;4.702;2023-09-12T03:29:39;19.73;;;12.27;;
30247;SDS011;17063;50.892;4.702;2023-09-12T03:32:05;22.93;;;13.27;;
30247;SDS011;17063;50.892;4.702;2023-09-12T03:34:33;23.27;;;13.60;;
30247;SDS011;17063;50.892;4.702;2023-09-12T03:36:59;21.73;;;13.87;;
30247;SDS011;17063;50.892;4.702;2023-09-12T03:39:26;23.20;;;14.10;;
30247;SDS011;17063;50.892;4.702;2023-09-12T03:41:53;24.40;;;13.57;;
30247;SDS011;17063;50.892;4.702;2023-09-12T03:44:20;19.20;;;12.83;;
30247;SDS011;17063;50.892;4.702;2023-09-12T03:46:48;21.23;;;13.17;;
30247;SDS011;17063;50.892;4.702;2023-09-12T03:49:14;25.20;;;14.57;;
30247;SDS011;17063;50.892;4.702;2023-09-12T03:51:42;23.93;;;15.80;;
30247;SDS011;17063;50.892;4.702;2023-09-12T03:54:09;22.57;;;15.57;;
30247;SDS011;17063;50.892;4.702;2023-09-12T03:56:36;29.23;;;17.30;;
30247;SDS011;17063;50.892;4.702;2023-09-12T03:59:03;30.20;;;17.30;;
30247;SDS011;17063;50.892;4.702;2023-09-12T04:01:29;34.07;;;20.30;;
30247;SDS011;17063;50.892;4.702;2023-09-12T04:03:56;28.97;;;19.00;;
30247;SDS011;17063;50.892;4.702;2023-09-12T04:06:28;34.10;;;19.47;;
30247;SDS011;17063;50.892;4.702;2023-09-12T04:08:55;30.57;;;18.87;;
30247;SDS011;17063;50.892;4.702;2023-09-12T04:11:21;30.93;;;18.00;;
30247;SDS011;17063;50.892;4.702;2023-09-12T04:14:05;32.27;;;17.93;;
30247;SDS011;17063;50.892;4.702;2023-09-12T04:16:32;26.37;;;17.10;;
30247;SDS011;17063;50.892;4.702;2023-09-12T04:19:00;25.47;;;15.90;;
30247;SDS011;17063;50.892;4.702;2023-09-12T04:21:27;29.60;;;16.43;;
30247;SDS011;17063;50.892;4.702;2023-09-12T04:23:54;26.73;;;17.00;;
30247;SDS011;17063;50.892;4.702;2023-09-12T04:26:20;26.77;;;17.70;;
30247;SDS011;17063;50.892;4.702;2023-09-12T04:28:48;29.30;;;17.63;;
30247;SDS011;17063;50.892;4.702;2023-09-12T04:31:15;31.07;;;19.40;;
30247;SDS011;17063;50.892;4.702;2023-09-12T04:33:43;31.77;;;19.17;;
30247;SDS011;17063;50.892;4.702;2023-09-12T04:36:10;27.80;;;17.97;;
30247;SDS011;17063;50.892;4.702;2023-09-12T04:38:37;33.43;;;19.87;;
30247;SDS011;17063;50.892;4.702;2023-09-12T04:41:05;32.83;;;20.80;;
30247;SDS011;17063;50.892;4.702;2023-09-12T04:43:33;34.20;;;20.10;;
30247;SDS011;17063;50.892;4.702;2023-09-12T04:46:00;32.07;;;19.60;;
30247;SDS011;17063;50.892;4.702;2023-09-12T04:48:28;35.30;;;20.70;;
30247;SDS011;17063;50.892;4.702;2023-09-12T04:50:55;35.73;;;20.40;;
30247;SDS011;17063;50.892;4.702;2023-09-12T04:53:22;32.37;;;20.27;;
30247;SDS011;17063;50.892;4.702;2023-09-12T04:55:52;33.90;;;21.40;;
30247;SDS011;17063;50.892;4.702;2023-09-12T04:58:20;31.57;;;20.53;;
30247;SDS011;17063;50.892;4.702;2023-09-12T05:00:47;33.80;;;20.33;;
30247;SDS011;17063;50.892;4.702;2023-09-12T05:03:14;31.40;;;20.37;;
30247;SDS011;17063;50.892;4.702;2023-09-12T05:05:41;36.27;;;20.87;;
30247;SDS011;17063;50.892;4.702;2023-09-12T05:08:08;34.87;;;21.37;;
30247;SDS011;17063;50.892;4.702;2023-09-12T05:10:35;33.63;;;21.53;;
30247;SDS011;17063;50.892;4.702;2023-09-12T05:13:03;41.57;;;23.30;;
30247;SDS011;17063;50.892;4.702;2023-09-12T05:15:30;38.60;;;22.27;;
30247;SDS011;17063;50.892;4.702;2023-09-12T05:17:57;35.47;;;21.50;;
30247;SDS011;17063;50.892;4.702;2023-09-12T05:20:24;41.40;;;22.43;;
30247;SDS011;17063;50.892;4.702;2023-09-12T05:22:50;37.97;;;21.50;;
30247;SDS011;17063;50.892;4.702;2023-09-12T05:25:17;42.67;;;21.57;;
30247;SDS011;17063;50.892;4.702;2023-09-12T05:27:44;35.10;;;22.00;;
30247;SDS011;17063;50.892;4.702;2023-09-12T05:30:12;33.70;;;21.80;;
30247;SDS011;17063;50.892;4.702;2023-09-12T05:32:40;37.27;;;23.23;;
30247;SDS011;17063;50.892;4.702;2023-09-12T05:35:07;42.47;;;24.03;;
30247;SDS011;17063;50.892;4.702;2023-09-12T05:37:47;40.47;;;23.83;;
30247;SDS011;17063;50.892;4.702;2023-09-12T05:40:15;41.23;;;22.37;;
30247;SDS011;17063;50.892;4.702;2023-09-12T05:42:42;34.40;;;22.20;;
30247;SDS011;17063;50.892;4.702;2023-09-12T05:45:09;41.43;;;22.30;;
30247;SDS011;17063;50.892;4.702;2023-09-12T05:47:36;46.40;;;23.43;;
30247;SDS011;17063;50.892;4.702;2023-09-12T05:50:05;37.23;;;21.47;;
30247;SDS011;17063;50.892;4.702;2023-09-12T05:52:33;35.80;;;22.23;;
30247;SDS011;17063;50.892;4.702;2023-09-12T05:55:01;38.00;;;22.97;;
30247;SDS011;17063;50.892;4.702;2023-09-12T05:57:28;40.50;;;23.40;;
30247;SDS011;17063;50.892;4.702;2023-09-12T05:59:56;38.53;;;22.77;;
30247;SDS011;17063;50.892;4.702;2023-09-12T06:02:23;41.90;;;23.13;;
30247;SDS011;17063;50.892;4.702;2023-09-12T06:04:50;35.70;;;21.23;;
30247;SDS011;17063;50.892;4.702;2023-09-12T06:07:18;35.20;;;22.80;;
30247;SDS011;17063;50.892;4.702;2023-09-12T06:09:45;44.73;;;24.20;;
30247;SDS011;17063;50.892;4.702;2023-09-12T06:12:13;41.67;;;24.27;;
30247;SDS011;17063;50.892;4.702;2023-09-12T06:14:40;40.97;;;24.53;;
30247;SDS011;17063;50.892;4.702;2023-09-12T06:17:07;48.13;;;22.97;;
30247;SDS011;17063;50.892;4.702;2023-09-12T06:19:35;39.77;;;24.47;;
30247;SDS011;17063;50.892;4.702;2023-09-12T06:22:03;44.13;;;25.90;;
30247;SDS011;17063;50.892;4.702;2023-09-12T06:24:30;41.60;;;26.17;;
30247;SDS011;17063;50.892;4.702;2023-09-12T06:26:57;41.53;;;24.97;;
30247;SDS011;17063;50.892;4.702;2023-09-12T06:29:24;40.93;;;25.17;;
30247;SDS011;17063;50.892;4.702;2023-09-12T06:31:51;40.70;;;23.80;;
30247;SDS011;17063;50.892;4.702;2023-09-12T06:34:18;39.57;;;23.30;;
30247;SDS011;17063;50.892;4.702;2023-09-12T06:36:45;38.83;;;22.47;;
30247;SDS011;17063;50.892;4.702;2023-09-12T06:39:12;34.30;;;20.37;;
30247;SDS011;17063;50.892;4.702;2023-09-12T06:41:39;36.00;;;22.23;;
30247;SDS011;17063;50.892;4.702;2023-09-12T06:44:06;37.03;;;22.10;;
30247;SDS011;17063;50.892;4.702;2023-09-12T06:46:33;38.43;;;21.83;;
30247;SDS011;17063;50.892;4.702;2023-09-12T06:49:04;41.13;;;23.93;;
30247;SDS011;17063;50.892;4.702;2023-09-12T06:51:31;39.23;;;22.87;;
30247;SDS011;17063;50.892;4.702;2023-09-12T06:54:03;37.53;;;23.63;;
30247;SDS011;17063;50.892;4.702;2023-09-12T06:56:30;48.53;;;26.40;;
30247;SDS011;17063;50.892;4.702;2023-09-12T06:58:57;45.10;;;26.70;;
30247;SDS011;17063;50.892;4.702;2023-09-12T07:01:25;45.47;;;27.07;;
30247;SDS011;17063;50.892;4.702;2023-09-12T07:03:52;73.43;;;44.20;;
30247;SDS011;17063;50.892;4.702;2023-09-12T07:06:21;143.43;;;93.07;;
30247;SDS011;17063;50.892;4.702;2023-09-12T07:08:49;83.20;;;48.27;;
30247;SDS011;17063;50.892;4.702;2023-09-12T07:11:16;48.40;;;29.17;;
30247;SDS011;17063;50.892;4.702;2023-09-12T07:13:43;54.30;;;30.23;;
30247;SDS011;17063;50.892;4.702;2023-09-12T07:16:11;50.70;;;28.53;;
30247;SDS011;17063;50.892;4.702;2023-09-12T07:18:38;47.53;;;28.13;;
30247;SDS011;17063;50.892;4.702;2023-09-12T07:21:06;46.43;;;27.60;;
30247;SDS011;17063;50.892;4.702;2023-09-12T07:23:33;52.57;;;30.07;;
30247;SDS011;17063;50.892;4.702;2023-09-12T07:26:00;51.30;;;28.67;;
30247;SDS011;17063;50.892;4.702;2023-09-12T07:28:27;47.43;;;27.50;;
30247;SDS011;17063;50.892;4.702;2023-09-12T07:30:54;49.90;;;28.37;;
30247;SDS011;17063;50.892;4.702;2023-09-12T07:33:21;50.47;;;28.20;;
30247;SDS011;17063;50.892;4.702;2023-09-12T07:35:55;48.90;;;29.27;;
30247;SDS011;17063;50.892;4.702;2023-09-12T07:38:25;48.37;;;27.73;;
30247;SDS011;17063;50.892;4.702;2023-09-12T07:40:53;46.70;;;25.67;;
30247;SDS011;17063;50.892;4.702;2023-09-12T07:43:27;46.70;;;26.23;;
30247;SDS011;17063;50.892;4.702;2023-09-12T07:45:57;48.17;;;28.00;;
30247;SDS011;17063;50.892;4.702;2023-09-12T07:48:25;40.47;;;25.20;;
30247;SDS011;17063;50.892;4.702;2023-09-12T07:50:52;36.30;;;24.17;;
30247;SDS011;17063;50.892;4.702;2023-09-12T07:53:20;36.10;;;21.07;;
30247;SDS011;17063;50.892;4.702;2023-09-12T07:55:47;33.23;;;21.20;;
30247;SDS011;17063;50.892;4.702;2023-09-12T07:58:16;44.23;;;24.67;;
30247;SDS011;17063;50.892;4.702;2023-09-12T08:00:46;40.93;;;23.90;;
30247;SDS011;17063;50.892;4.702;2023-09-12T08:03:15;39.20;;;21.00;;
30247;SDS011;17063;50.892;4.702;2023-09-12T08:05:42;37.27;;;21.97;;
30247;SDS011;17063;50.892;4.702;2023-09-12T08:08:09;45.53;;;23.47;;
30247;SDS011;17063;50.892;4.702;2023-09-12T08:10:37;31.80;;;19.33;;
30247;SDS011;17063;50.892;4.702;2023-09-12T08:13:04;33.43;;;20.63;;
30247;SDS011;17063;50.892;4.702;2023-09-12T08:15:31;33.40;;;19.43;;
30247;SDS011;17063;50.892;4.702;2023-09-12T08:18:04;30.97;;;18.93;;
30247;SDS011;17063;50.892;4.702;2023-09-12T08:21:05;35.87;;;19.40;;
30247;SDS011;17063;50.892;4.702;2023-09-12T08:23:34;35.20;;;18.80;;
30247;SDS011;17063;50.892;4.702;2023-09-12T08:26:02;44.67;;;23.70;;
30247;SDS011;17063;50.892;4.702;2023-09-12T08:28:29;36.40;;;18.97;;
30247;SDS011;17063;50.892;4.702;2023-09-12T08:30:56;30.23;;;18.20;;
30247;SDS011;17063;50.892;4.702;2023-09-12T08:33:23;34.23;;;18.97;;
30247;SDS011;17063;50.892;4.702;2023-09-12T08:35:52;30.27;;;18.60;;
30247;SDS011;17063;50.892;4.702;2023-09-12T08:38:19;32.20;;;18.73;;
30247;SDS011;17063;50.892;4.702;2023-09-12T08:40:49;35.17;;;20.87;;
30247;SDS011;17063;50.892;4.702;2023-09-12T08:43:17;37.93;;;21.17;;
30247;SDS011;17063;50.892;4.702;2023-09-12T08:45:44;37.57;;;23.23;;
30247;SDS011;17063;50.892;4.702;2023-09-12T08:48:15;41.10;;;21.93;;
30247;SDS011;17063;50.892;4.702;2023-09-12T08:50:43;39.83;;;21.60;;
30247;SDS011;17063;50.892;4.702;2023-09-12T08:53:10;41.50;;;25.03;;
30247;SDS011;17063;50.892;4.702;2023-09-12T08:55:37;42.07;;;23.40;;
30247;SDS011;17063;50.892;4.702;2023-09-12T08:58:05;39.50;;;21.83;;
30247;SDS011;17063;50.892;4.702;2023-09-12T09:00:32;44.77;;;22.60;;
30247;SDS011;17063;50.892;4.702;2023-09-12T09:03:00;38.07;;;22.50;;
30247;SDS011;17063;50.892;4.702;2023-09-12T09:05:29;38.77;;;21.00;;
30247;SDS011;17063;50.892;4.702;2023-09-12T09:07:57;40.83;;;22.83;;
30247;SDS011;17063;50.892;4.702;2023-09-12T09:10:25;36.17;;;21.03;;
30247;SDS011;17063;50.892;4.702;2023-09-12T09:13:16;34.97;;;19.23;;
30247;SDS011;17063;50.892;4.702;2023-09-12T09:15:44;33.20;;;19.23;;
30247;SDS011;17063;50.892;4.702;2023-09-12T09:18:11;35.67;;;18.87;;
30247;SDS011;17063;50.892;4.702;2023-09-12T09:20:39;31.20;;;17.77;;
30247;SDS011;17063;50.892;4.702;2023-09-12T09:23:08;26.80;;;15.67;;
30247;SDS011;17063;50.892;4.702;2023-09-12T09:25:38;28.73;;;15.70;;
30247;SDS011;17063;50.892;4.702;2023-09-12T09:28:16;27.00;;;14.63;;
30247;SDS011;17063;50.892;4.702;2023-09-12T09:30:44;24.43;;;15.53;;
30247;SDS011;17063;50.892;4.702;2023-09-12T09:33:12;30.47;;;17.13;;
30247;SDS011;17063;50.892;4.702;2023-09-12T09:35:45;25.73;;;16.70;;
30247;SDS011;17063;50.892;4.702;2023-09-12T09:38:15;31.27;;;17.10;;
30247;SDS011;17063;50.892;4.702;2023-09-12T09:40:46;29.00;;;16.23;;
30247;SDS011;17063;50.892;4.702;2023-09-12T09:43:13;25.60;;;16.00;;
30247;SDS011;17063;50.892;4.702;2023-09-12T09:45:46;24.60;;;16.37;;
30247;SDS011;17063;50.892;4.702;2023-09-12T09:50:47;28.73;;;14.60;;
30247;SDS011;17063;50.892;4.702;2023-09-12T09:53:15;25.37;;;14.80;;
30247;SDS011;17063;50.892;4.702;2023-09-12T09:55:43;25.13;;;12.83;;
30247;SDS011;17063;50.892;4.702;2023-09-12T09:58:14;18.30;;;11.40;;
30247;SDS011;17063;50.892;4.702;2023-09-12T10:00:43;19.27;;;12.00;;
30247;SDS011;17063;50.892;4.702;2023-09-12T10:03:11;14.70;;;8.73;;
30247;SDS011;17063;50.892;4.702;2023-09-12T10:05:39;17.80;;;8.80;;
30247;SDS011;17063;50.892;4.702;2023-09-12T10:08:07;23.10;;;8.53;;
30247;SDS011;17063;50.892;4.702;2023-09-12T10:10:43;13.03;;;7.77;;
30247;SDS011;17063;50.892;4.702;2023-09-12T10:13:10;13.20;;;6.97;;
30247;SDS011;17063;50.892;4.702;2023-09-12T10:15:38;12.73;;;7.67;;
30247;SDS011;17063;50.892;4.702;2023-09-12T10:18:08;13.00;;;7.67;;
30247;SDS011;17063;50.892;4.702;2023-09-12T10:20:47;11.57;;;6.63;;
30247;SDS011;17063;50.892;4.702;2023-09-12T10:23:30;13.00;;;7.97;;
30247;SDS011;17063;50.892;4.702;2023-09-12T10:26:04;15.10;;;7.80;;
30247;SDS011;17063;50.892;4.702;2023-09-12T10:28:31;14.80;;;9.37;;
30247;SDS011;17063;50.892;4.702;2023-09-12T10:30:58;15.77;;;9.97;;
30247;SDS011;17063;50.892;4.702;2023-09-12T10:33:28;17.07;;;9.47;;
30247;SDS011;17063;50.892;4.702;2023-09-12T10:35:58;19.67;;;11.23;;
30247;SDS011;17063;50.892;4.702;2023-09-12T10:38:26;12.83;;;9.07;;
30247;SDS011;17063;50.892;4.702;2023-09-12T10:40:56;12.53;;;8.17;;
30247;SDS011;17063;50.892;4.702;2023-09-12T10:43:23;16.80;;;8.80;;
30247;SDS011;17063;50.892;4.702;2023-09-12T10:45:51;14.20;;;8.53;;
30247;SDS011;17063;50.892;4.702;2023-09-12T10:48:19;15.87;;;9.83;;
30247;SDS011;17063;50.892;4.702;2023-09-12T10:50:46;14.43;;;8.87;;
30247;SDS011;17063;50.892;4.702;2023-09-12T10:53:14;13.43;;;8.03;;
30247;SDS011;17063;50.892;4.702;2023-09-12T10:55:42;14.47;;;7.80;;
30247;SDS011;17063;50.892;4.702;2023-09-12T10:58:09;12.73;;;7.40;;
30247;SDS011;17063;50.892;4.702;2023-09-12T11:00:39;12.33;;;6.97;;
30247;SDS011;17063;50.892;4.702;2023-09-12T11:05:56;10.77;;;7.13;;
30247;SDS011;17063;50.892;4.702;2023-09-12T11:08:23;14.57;;;8.17;;
30247;SDS011;17063;50.892;4.702;2023-09-12T11:13:47;16.97;;;10.57;;
30247;SDS011;17063;50.892;4.702;2023-09-12T11:16:25;14.87;;;9.90;;
30247;SDS011;17063;50.892;4.702;2023-09-12T11:21:54;15.30;;;10.37;;
30247;SDS011;17063;50.892;4.702;2023-09-12T11:24:22;16.93;;;8.80;;
30247;SDS011;17063;50.892;4.702;2023-09-12T11:26:58;16.83;;;9.73;;
30247;SDS011;17063;50.892;4.702;2023-09-12T11:29:29;17.50;;;9.73;;
30247;SDS011;17063;50.892;4.702;2023-09-12T11:32:03;12.87;;;8.67;;
30247;SDS011;17063;50.892;4.702;2023-09-12T11:34:37;12.83;;;8.70;;
30247;SDS011;17063;50.892;4.702;2023-09-12T11:37:07;13.03;;;7.00;;
30247;SDS011;17063;50.892;4.702;2023-09-12T11:39:35;10.67;;;6.87;;
30247;SDS011;17063;50.892;4.702;2023-09-12T11:42:03;13.97;;;7.43;;
30247;SDS011;17063;50.892;4.702;2023-09-12T11:44:31;9.23;;;6.67;;
30247;SDS011;17063;50.892;4.702;2023-09-12T11:46:59;15.10;;;6.67;;
30247;SDS011;17063;50.892;4.702;2023-09-12T11:49:35;8.67;;;6.23;;
30247;SDS011;17063;50.892;4.702;2023-09-12T11:52:08;8.73;;;5.77;;
30247;SDS011;17063;50.892;4.702;2023-09-12T11:54:35;9.73;;;6.00;;
30247;SDS011;17063;50.892;4.702;2023-09-12T11:57:02;9.43;;;6.03;;
30247;SDS011;17063;50.892;4.702;2023-09-12T11:59:30;11.50;;;6.00;;
30247;SDS011;17063;50.892;4.702;2023-09-12T12:01:57;12.73;;;6.27;;
30247;SDS011;17063;50.892;4.702;2023-09-12T12:04:24;10.00;;;6.13;;
30247;SDS011;17063;50.892;4.702;2023-09-12T12:06:52;9.87;;;6.33;;
30247;SDS011;17063;50.892;4.702;2023-09-12T12:09:19;11.77;;;7.27;;
30247;SDS011;17063;50.892;4.702;2023-09-12T12:11:46;12.37;;;8.07;;
30247;SDS011;17063;50.892;4.702;2023-09-12T12:14:17;14.60;;;7.83;;
30247;SDS011;17063;50.892;4.702;2023-09-12T12:16:46;11.23;;;7.70;;
30247;SDS011;17063;50.892;4.702;2023-09-12T12:19:13;12.33;;;7.47;;
30247;SDS011;17063;50.892;4.702;2023-09-12T12:21:41;12.83;;;7.43;;
30247;SDS011;17063;50.892;4.702;2023-09-12T12:24:13;12.17;;;7.40;;
30247;SDS011;17063;50.892;4.702;2023-09-12T12:26:41;8.57;;;6.07;;
30247;SDS011;17063;50.892;4.702;2023-09-12T12:29:11;10.23;;;6.53;;
30247;SDS011;17063;50.892;4.702;2023-09-12T12:31:40;9.90;;;7.37;;
30247;SDS011;17063;50.892;4.702;2023-09-12T12:34:07;11.40;;;7.93;;
30247;SDS011;17063;50.892;4.702;2023-09-12T12:36:56;8.77;;;6.00;;
30247;SDS011;17063;50.892;4.702;2023-09-12T12:39:25;10.03;;;6.20;;
30247;SDS011;17063;50.892;4.702;2023-09-12T12:41:52;12.03;;;6.90;;
30247;SDS011;17063;50.892;4.702;2023-09-12T12:44:20;12.07;;;6.80;;
30247;SDS011;17063;50.892;4.702;2023-09-12T12:46:51;12.30;;;7.60;;
30247;SDS011;17063;50.892;4.702;2023-09-12T12:49:19;10.33;;;6.53;;
30247;SDS011;17063;50.892;4.702;2023-09-12T12:51:47;11.70;;;6.40;;
30247;SDS011;17063;50.892;4.702;2023-09-12T12:54:15;13.67;;;7.27;;
30247;SDS011;17063;50.892;4.702;2023-09-12T12:56:43;10.20;;;6.60;;
30247;SDS011;17063;50.892;4.702;2023-09-12T12:59:11;12.37;;;7.90;;
30247;SDS011;17063;50.892;4.702;2023-09-12T13:01:38;11.93;;;7.83;;
30247;SDS011;17063;50.892;4.702;2023-09-12T13:04:06;11.03;;;7.53;;
30247;SDS011;17063;50.892;4.702;2023-09-12T13:06:34;14.83;;;9.20;;
30247;SDS011;17063;50.892;4.702;2023-09-12T13:09:06;10.07;;;7.03;;
30247;SDS011;17063;50.892;4.702;2023-09-12T13:11:33;11.90;;;7.37;;
30247;SDS011;17063;50.892;4.702;2023-09-12T13:14:01;9.37;;;7.23;;
30247;SDS011;17063;50.892;4.702;2023-09-12T13:16:30;12.13;;;6.93;;
30247;SDS011;17063;50.892;4.702;2023-09-12T13:18:57;12.40;;;6.63;;
30247;SDS011;17063;50.892;4.702;2023-09-12T13:21:24;12.63;;;7.50;;
30247;SDS011;17063;50.892;4.702;2023-09-12T13:23:51;9.53;;;6.07;;
30247;SDS011;17063;50.892;4.702;2023-09-12T13:26:18;14.23;;;9.47;;
30247;SDS011;17063;50.892;4.702;2023-09-12T13:28:45;13.53;;;8.47;;
30247;SDS011;17063;50.892;4.702;2023-09-12T13:31:12;11.47;;;7.87;;
30247;SDS011;17063;50.892;4.702;2023-09-12T13:33:39;12.43;;;8.03;;
30247;SDS011;17063;50.892;4.702;2023-09-12T13:36:07;16.47;;;8.80;;
30247;SDS011;17063;50.892;4.702;2023-09-12T13:38:34;10.50;;;7.23;;
30247;SDS011;17063;50.892;4.702;2023-09-12T13:41:00;14.40;;;7.97;;
30247;SDS011;17063;50.892;4.702;2023-09-12T13:43:27;15.60;;;8.30;;
30247;SDS011;17063;50.892;4.702;2023-09-12T13:45:54;11.40;;;7.93;;
30247;SDS011;17063;50.892;4.702;2023-09-12T13:48:21;13.00;;;7.50;;
30247;SDS011;17063;50.892;4.702;2023-09-12T13:50:48;11.13;;;7.30;;
30247;SDS011;17063;50.892;4.702;2023-09-12T13:53:16;11.00;;;7.30;;
30247;SDS011;17063;50.892;4.702;2023-09-12T13:55:42;12.67;;;7.43;;
30247;SDS011;17063;50.892;4.702;2023-09-12T13:58:29;11.00;;;7.97;;
30247;SDS011;17063;50.892;4.702;2023-09-12T14:01:08;11.20;;;7.40;;
30247;SDS011;17063;50.892;4.702;2023-09-12T14:03:38;10.10;;;7.77;;
30247;SDS011;17063;50.892;4.702;2023-09-12T14:06:05;12.10;;;7.80;;
30247;SDS011;17063;50.892;4.702;2023-09-12T14:08:32;10.50;;;6.90;;
30247;SDS011;17063;50.892;4.702;2023-09-12T14:11:00;14.43;;;7.30;;
30247;SDS011;17063;50.892;4.702;2023-09-12T14:13:27;13.13;;;7.00;;
30247;SDS011;17063;50.892;4.702;2023-09-12T14:15:54;10.00;;;7.10;;
30247;SDS011;17063;50.892;4.702;2023-09-12T14:18:23;12.20;;;6.90;;
30247;SDS011;17063;50.892;4.702;2023-09-12T14:20:53;13.87;;;6.87;;
30247;SDS011;17063;50.892;4.702;2023-09-12T14:23:22;15.87;;;7.90;;
30247;SDS011;17063;50.892;4.702;2023-09-12T14:25:52;10.03;;;7.23;;
30247;SDS011;17063;50.892;4.702;2023-09-12T14:28:19;14.20;;;7.67;;
30247;SDS011;17063;50.892;4.702;2023-09-12T14:30:47;8.57;;;7.10;;
30247;SDS011;17063;50.892;4.702;2023-09-12T14:33:16;10.90;;;6.93;;
30247;SDS011;17063;50.892;4.702;2023-09-12T14:35:45;12.80;;;7.20;;
30247;SDS011;17063;50.892;4.702;2023-09-12T14:38:12;13.20;;;7.17;;
30247;SDS011;17063;50.892;4.702;2023-09-12T14:40:39;8.63;;;6.30;;
30247;SDS011;17063;50.892;4.702;2023-09-12T14:43:10;8.53;;;6.03;;
30247;SDS011;17063;50.892;4.702;2023-09-12T14:45:37;9.87;;;6.50;;
30247;SDS011;17063;50.892;4.702;2023-09-12T14:48:05;9.93;;;7.07;;
30247;SDS011;17063;50.892;4.702;2023-09-12T14:50:33;9.60;;;6.13;;
30247;SDS011;17063;50.892;4.702;2023-09-12T14:53:09;8.77;;;6.57;;